Main page
METAR-TAF:

METAR-TAF

Airports :

RNAS Culdrose (HMS Seahawk)

Culdrose, England

latitude: 50-05N, longitude: 005-15W, elevation: 78 m

Current weather observation

The report was made 44 minutes ago, at 02:50 UTC
Wind 14 kt from the East
Temperature 15°C
Humidity 94%
Pressure 1010 hPa
Visibility: 6000 m

METAR: EGDR 270250Z AUTO 08014KT 6000 // OVC070/// 15/14 Q1010

Time: 04:34 (03:34 UTC)


TAF: missing

Weather observations and forecasts of more than 4000 airports (METAR and TAF reports).

The available stations are represented by yellow and red dots on the map.

Hover mouse over dot to see the name of the station.

Then click to see weather observations and forecasts.

To change the map : click on the green buttons with a black cross to zoom in, on the green button with a dash to zoom out, or on the green arrows for adjacent maps.


METAR-TAF: